createdAt,value
2022-08-21T00:01:27.702Z,93106.34
2022-08-21T00:16:29.428Z,93089.78
2022-08-21T00:31:31.018Z,93072.66
2022-08-21T00:46:32.785Z,93081.22
2022-08-21T01:01:34.641Z,93075.84
2022-08-21T01:16:36.223Z,93057.84
2022-08-21T01:31:38.283Z,93052.38
2022-08-21T01:46:39.821Z,93055.94
2022-08-21T02:01:41.453Z,93059.03
2022-08-21T02:16:43.951Z,93050.63
2022-08-21T02:31:46.813Z,93072.19
2022-08-21T02:46:48.377Z,93080.91
2022-08-21T03:01:50.026Z,93071.13
2022-08-21T03:16:51.603Z,93074.44
2022-08-21T03:31:55.125Z,93070.13
2022-08-21T03:46:57.380Z,93061.84
2022-08-21T04:02:02.128Z,93092.00
2022-08-21T04:17:03.874Z,93084.03
2022-08-21T04:32:05.485Z,93076.81
2022-08-21T04:47:07.103Z,93078.50
2022-08-21T05:02:09.835Z,93084.00
2022-08-21T05:17:11.663Z,93093.50
2022-08-21T05:32:14.094Z,93084.69
2022-08-21T05:47:15.986Z,93080.06
2022-08-21T06:02:21.048Z,93089.47
2022-08-21T06:17:22.618Z,93079.16
2022-08-21T06:32:24.426Z,93087.44
2022-08-21T06:47:26.414Z,93087.34
2022-08-21T07:02:28.248Z,93095.06
2022-08-21T07:17:29.780Z,93103.06
2022-08-21T07:32:31.405Z,93096.84
2022-08-21T07:47:42.030Z,93082.50
2022-08-21T08:02:50.518Z,93071.53
2022-08-21T08:17:52.184Z,93070.84
2022-08-21T08:32:54.049Z,93077.50
2022-08-21T08:48:01.929Z,93078.88
2022-08-21T09:03:04.424Z,93061.88
2022-08-21T09:18:16.532Z,93044.69
2022-08-21T09:33:18.521Z,93032.28
2022-08-21T09:48:21.515Z,93038.00
2022-08-21T10:03:25.502Z,93023.00
2022-08-21T10:18:43.969Z,93008.91
2022-08-21T10:33:57.617Z,92997.72
2022-08-21T10:49:03.285Z,92997.81
2022-08-21T11:04:18.346Z,92975.25
2022-08-21T11:19:31.787Z,92948.28
2022-08-21T11:34:33.323Z,92944.94
2022-08-21T11:49:37.639Z,92947.44
2022-08-21T12:04:44.952Z,92936.72
2022-08-21T12:20:02.037Z,92927.16
2022-08-21T12:35:15.529Z,92935.50
2022-08-21T12:50:29.229Z,92918.88
2022-08-21T13:05:33.020Z,92908.66
2022-08-21T13:20:36.035Z,92903.09
2022-08-21T13:35:48.198Z,92876.25
2022-08-21T13:50:50.423Z,92873.44
2022-08-21T14:05:51.962Z,92882.44
2022-08-21T14:21:04.409Z,92882.75
2022-08-21T14:36:06.275Z,92899.97
2022-08-21T14:51:07.802Z,92893.44
2022-08-21T15:06:09.889Z,92883.44
2022-08-21T15:21:11.481Z,92841.59
2022-08-21T15:36:13.031Z,92816.91
2022-08-21T15:51:15.372Z,92808.25
2022-08-21T16:06:17.021Z,92832.34
2022-08-21T16:21:18.639Z,92869.91
2022-08-21T16:36:20.891Z,92885.28
2022-08-21T16:51:22.992Z,92875.03
2022-08-21T17:06:28.094Z,92897.56
2022-08-21T17:21:30.838Z,92927.31
2022-08-21T17:36:32.420Z,92929.88
2022-08-21T17:51:34.298Z,92946.59
2022-08-21T18:06:36.134Z,92972.41
2022-08-21T18:21:37.907Z,92982.22
2022-08-21T18:36:39.516Z,92980.38
2022-08-21T18:51:44.851Z,92983.06
2022-08-21T19:06:47.186Z,92982.94
2022-08-21T19:21:49.377Z,92981.88
2022-08-21T19:36:51.216Z,92986.47
2022-08-21T19:51:53.461Z,93007.66
2022-08-21T20:06:55.272Z,93019.44
2022-08-21T20:21:58.433Z,93006.94
2022-08-21T20:37:00.822Z,92991.22
2022-08-21T20:52:03.948Z,92990.47
2022-08-21T21:07:09.065Z,93022.97
2022-08-21T21:22:14.376Z,93038.44
2022-08-21T21:37:25.857Z,93011.00
2022-08-21T21:52:37.783Z,93011.38
2022-08-21T22:16:08.012Z,93019.59
2022-08-21T22:31:18.348Z,93012.66
2022-08-21T22:46:31.714Z,92997.38
2022-08-21T23:01:41.549Z,92995.97
2022-08-21T23:17:10.585Z,93010.28
2022-08-21T23:47:51.046Z,93007.38
